WIF3J ENSR-ENTC

Flight info

Callsign WIF3J
Flight time 0h 19m
Altitude 12000
Route HTK DCT PAXLO
Aircraft DH8B/M-SDFGRY/SB1

Departure

Time 2026-04-28 15:33
Airport Sørkjosen Airport (ENSR)

Arrival

Time 2026-04-28 15:53
Airport Tromsø Airport (ENTC)
Time Latitude Longitude Altitude Speed Heading
2026-04-28 15:25 69.78549 20.95888 6 ft 0 kts 334°
2026-04-28 15:30 69.78552 20.95886 6 ft 1 kts 334°
2026-04-28 15:31 69.78571 20.95863 6 ft 4 kts 354°
2026-04-28 15:31 69.78596 20.95941 6 ft 6 kts 62°
2026-04-28 15:31 69.78590 20.96086 6 ft 10 kts 153°
2026-04-28 15:31 69.78509 20.96192 7 ft 15 kts 155°
2026-04-28 15:32 69.78408 20.96334 8 ft 16 kts 154°
2026-04-28 15:32 69.78342 20.96408 8 ft 12 kts 181°
2026-04-28 15:32 69.78338 20.96431 8 ft 3 kts 334°
2026-04-28 15:32 69.78339 20.96429 8 ft 0 kts 332°
2026-04-28 15:33 69.78523 20.96173 7 ft 73 kts 336°
2026-04-28 15:33 69.79137 20.95373 230 ft 105 kts 345°
2026-04-28 15:33 69.79896 20.95601 686 ft 122 kts 24°
2026-04-28 15:33 69.80692 20.96225 1311 ft 123 kts
2026-04-28 15:34 69.81520 20.96623 1959 ft 124 kts
2026-04-28 15:34 69.82360 20.96945 2606 ft 125 kts
2026-04-28 15:34 69.83218 20.97249 3261 ft 126 kts
2026-04-28 15:34 69.84068 20.97537 3877 ft 124 kts
2026-04-28 15:35 69.84910 20.97817 4409 ft 125 kts
2026-04-28 15:35 69.86715 20.98396 5116 ft 152 kts
2026-04-28 15:35 69.87823 20.98756 5374 ft 166 kts
2026-04-28 15:36 69.88976 20.99130 5753 ft 171 kts
2026-04-28 15:36 69.90158 20.99519 6197 ft 172 kts
2026-04-28 15:36 69.91344 20.99687 6606 ft 173 kts 348°
2026-04-28 15:36 69.92294 20.97765 7028 ft 173 kts 303°
2026-04-28 15:37 69.92491 20.94363 7493 ft 177 kts 269°
2026-04-28 15:37 69.92426 20.90769 7888 ft 183 kts 272°
2026-04-28 15:37 69.92347 20.87053 8433 ft 184 kts 272°
2026-04-28 15:37 69.92292 20.84604 8787 ft 184 kts 272°
2026-04-28 15:38 69.92181 20.79656 9460 ft 187 kts 273°
2026-04-28 15:38 69.92095 20.75909 9966 ft 189 kts 274°
2026-04-28 15:38 69.92007 20.72075 10449 ft 192 kts 274°
2026-04-28 15:38 69.91916 20.68210 10989 ft 193 kts 274°
2026-04-28 15:39 69.91824 20.64322 11513 ft 194 kts 275°
2026-04-28 15:39 69.91729 20.60415 12030 ft 196 kts 275°
2026-04-28 15:39 69.91637 20.56433 12361 ft 206 kts 275°
2026-04-28 15:39 69.91534 20.52139 12378 ft 220 kts 274°
2026-04-28 15:40 69.91425 20.47622 12382 ft 227 kts 274°
2026-04-28 15:40 69.91308 20.43023 12374 ft 233 kts 274°
2026-04-28 15:40 69.91187 20.38249 12361 ft 237 kts 273°
2026-04-28 15:40 69.91065 20.33479 12354 ft 241 kts 272°
2026-04-28 15:41 69.90938 20.28572 12345 ft 243 kts 272°
2026-04-28 15:41 69.90813 20.23694 12329 ft 245 kts 272°
2026-04-28 15:41 69.90707 20.18777 12325 ft 243 kts 277°
2026-04-28 15:41 69.90469 20.13852 12289 ft 256 kts 254°
2026-04-28 15:42 69.89903 20.09064 12337 ft 252 kts 258°
2026-04-28 15:42 69.89249 20.04258 12327 ft 255 kts 255°
2026-04-28 15:42 69.88569 19.99525 12332 ft 256 kts 253°
2026-04-28 15:42 69.87879 19.94828 12339 ft 256 kts 253°
2026-04-28 15:43 69.87168 19.90038 12335 ft 257 kts 253°
2026-04-28 15:43 69.86466 19.85312 12333 ft 257 kts 253°
2026-04-28 15:43 69.85754 19.80538 12338 ft 257 kts 253°
2026-04-28 15:43 69.85051 19.75840 12348 ft 257 kts 253°
2026-04-28 15:44 69.84339 19.71088 12346 ft 257 kts 253°
2026-04-28 15:44 69.83622 19.66315 12343 ft 257 kts 253°
2026-04-28 15:44 69.82917 19.61635 12342 ft 257 kts 253°
2026-04-28 15:44 69.82198 19.56879 12351 ft 257 kts 253°
2026-04-28 15:45 69.81484 19.52150 12341 ft 258 kts 253°
2026-04-28 15:45 69.80768 19.47436 12320 ft 257 kts 253°
2026-04-28 15:45 69.80101 19.42638 12337 ft 253 kts 261°
2026-04-28 15:45 69.79644 19.37790 12317 ft 253 kts 260°
2026-04-28 15:46 69.79161 19.32925 12168 ft 244 kts 260°
2026-04-28 15:46 69.78703 19.28339 11740 ft 238 kts 260°
2026-04-28 15:46 69.78249 19.23779 11320 ft 234 kts 260°
2026-04-28 15:46 69.77805 19.19368 10883 ft 230 kts 260°
2026-04-28 15:47 69.77361 19.14960 10478 ft 227 kts 259°
2026-04-28 15:47 69.76932 19.10666 10044 ft 224 kts 259°
2026-04-28 15:47 69.76499 19.06373 9636 ft 221 kts 259°
2026-04-28 15:47 69.76073 19.02184 9101 ft 221 kts 257°
2026-04-28 15:48 69.75234 18.98403 8450 ft 233 kts 223°
2026-04-28 15:48 69.73730 18.96793 7825 ft 239 kts 184°
2026-04-28 15:48 69.72108 18.97297 7437 ft 229 kts 173°
2026-04-28 15:48 69.70628 18.98456 6955 ft 227 kts 151°
2026-04-28 15:49 69.69418 19.01339 6056 ft 241 kts 132°
2026-04-28 15:49 69.68799 19.05498 5855 ft 217 kts 93°
2026-04-28 15:49 69.69208 19.09455 5360 ft 210 kts 52°
2026-04-28 15:49 69.70350 19.12081 4486 ft 218 kts 21°
2026-04-28 15:50 69.71741 19.12812 4348 ft 193 kts 357°
2026-04-28 15:50 69.72970 19.12013 4163 ft 177 kts 330°
2026-04-28 15:50 69.73725 19.09446 3830 ft 173 kts 290°
2026-04-28 15:50 69.73693 19.06074 3384 ft 172 kts 252°
2026-04-28 15:51 69.73194 19.02989 3020 ft 166 kts 237°
2026-04-28 15:51 69.72588 19.00415 2590 ft 149 kts 236°
2026-04-28 15:51 69.72039 18.98151 2210 ft 127 kts 235°
2026-04-28 15:51 69.71517 18.96248 1743 ft 120 kts 231°
2026-04-28 15:52 69.70911 18.94597 1234 ft 119 kts 220°
2026-04-28 15:52 69.70230 18.93391 790 ft 115 kts 206°
2026-04-28 15:52 69.69484 18.92683 340 ft 113 kts 194°
2026-04-28 15:52 69.68752 18.92181 10 ft 102 kts 195°
2026-04-28 15:53 69.68232 18.91806 2 ft 43 kts 192°
2026-04-28 15:53 69.68072 18.91648 4 ft 14 kts 250°
2026-04-28 15:53 69.68077 18.91410 3 ft 10 kts 293°
2026-04-28 15:53 69.68104 18.91201 3 ft 10 kts 285°
2026-04-28 15:54 69.68116 18.91042 3 ft 5 kts 282°
2026-04-28 15:54 69.68117 18.91028 3 ft 0 kts 282°